createdAt,value
2019-02-18T00:01:56.823Z,50.12
2019-02-18T00:05:02.612Z,50.13
2019-02-18T00:08:09.789Z,49.70
2019-02-18T00:11:15.574Z,49.34
2019-02-18T00:14:21.375Z,50.47
2019-02-18T00:17:27.158Z,48.94
2019-02-18T00:20:32.975Z,49.11
2019-02-18T00:23:38.790Z,48.82
2019-02-18T00:26:44.601Z,48.56
2019-02-18T00:29:50.360Z,48.57
2019-02-18T00:32:56.165Z,47.61
2019-02-18T00:36:01.920Z,48.70
2019-02-18T00:39:07.919Z,48.49
2019-02-18T00:42:13.797Z,48.46
2019-02-18T00:45:19.675Z,47.77
2019-02-18T00:48:25.462Z,46.87
2019-02-18T00:51:31.327Z,46.56
2019-02-18T00:54:37.107Z,46.17
2019-02-18T00:57:42.973Z,49.08
2019-02-18T01:00:48.745Z,50.00
2019-02-18T01:03:54.504Z,49.40
2019-02-18T01:07:00.313Z,49.17
2019-02-18T01:10:06.698Z,49.58
2019-02-18T01:13:12.548Z,48.64
2019-02-18T01:16:18.312Z,48.20
2019-02-18T01:19:24.281Z,48.90
2019-02-18T01:22:30.093Z,47.86
2019-02-18T01:25:35.903Z,47.51
2019-02-18T01:28:41.688Z,48.10
2019-02-18T01:31:47.563Z,48.26
2019-02-18T01:34:53.350Z,47.82
2019-02-18T01:37:59.125Z,47.76
2019-02-18T01:41:05.012Z,47.12
2019-02-18T01:44:10.776Z,47.02
2019-02-18T01:47:16.548Z,46.56
2019-02-18T01:50:22.824Z,46.25
2019-02-18T01:53:28.629Z,46.41
2019-02-18T01:56:34.401Z,46.33
2019-02-18T01:59:40.173Z,46.47
2019-02-18T02:02:45.938Z,46.17
2019-02-18T02:05:51.795Z,46.43
2019-02-18T02:08:57.700Z,46.30
2019-02-18T02:12:03.520Z,46.56
2019-02-18T02:15:12.592Z,46.36
2019-02-18T02:18:19.421Z,46.35
2019-02-18T02:21:25.183Z,46.67
2019-02-18T02:24:31.020Z,46.72
2019-02-18T02:27:36.792Z,46.59
2019-02-18T02:30:42.590Z,47.23
2019-02-18T02:33:49.450Z,47.01
2019-02-18T02:36:55.258Z,47.33
2019-02-18T02:40:01.042Z,46.96
2019-02-18T02:43:07.501Z,46.97
2019-02-18T02:46:13.263Z,47.01
2019-02-18T02:49:19.043Z,47.79
2019-02-18T02:52:24.828Z,47.12
2019-02-18T02:55:30.630Z,47.19
2019-02-18T02:58:36.426Z,46.97
2019-02-18T03:01:42.201Z,46.59
2019-02-18T03:04:47.983Z,47.00
2019-02-18T03:07:53.872Z,46.58
2019-02-18T03:10:59.636Z,48.43
2019-02-18T03:14:05.468Z,48.51
2019-02-18T03:17:11.246Z,47.81
2019-02-18T03:20:17.059Z,47.15
2019-02-18T03:23:22.936Z,47.25
2019-02-18T03:26:28.817Z,47.35
2019-02-18T03:30:13.963Z,47.30
2019-02-18T03:33:40.571Z,47.54
2019-02-18T03:36:46.446Z,47.43
2019-02-18T03:39:52.250Z,47.60
2019-02-18T03:42:58.046Z,47.64
2019-02-18T03:46:03.936Z,48.12
2019-02-18T03:49:09.716Z,48.01
2019-02-18T03:52:15.605Z,47.92
2019-02-18T03:55:21.396Z,47.81
2019-02-18T03:58:27.271Z,47.79
2019-02-18T04:01:33.268Z,47.40
2019-02-18T04:04:39.050Z,47.52
2019-02-18T04:07:44.828Z,48.06
2019-02-18T04:10:50.623Z,47.67
2019-02-18T04:13:56.442Z,47.19
2019-02-18T04:17:02.333Z,47.27
2019-02-18T04:20:08.342Z,47.51
2019-02-18T04:23:14.169Z,47.34
2019-02-18T04:26:20.164Z,47.01
2019-02-18T04:29:26.131Z,46.96
2019-02-18T04:32:31.943Z,46.90
2019-02-18T04:35:37.765Z,47.99
2019-02-18T04:38:53.856Z,47.75
2019-02-18T04:41:51.021Z,47.83
2019-02-18T04:44:56.846Z,48.26
2019-02-18T04:48:02.636Z,48.37
2019-02-18T04:51:08.419Z,48.73
2019-02-18T04:54:14.210Z,48.26
2019-02-18T04:57:20.008Z,48.40
2019-02-18T05:00:25.809Z,48.50
2019-02-18T05:03:32.197Z,47.68
2019-02-18T05:06:38.086Z,47.88
2019-02-18T05:09:43.867Z,47.29
2019-02-18T05:12:50.600Z,47.17
2019-02-18T05:15:57.995Z,47.86
2019-02-18T05:19:06.678Z,48.39
2019-02-18T05:22:12.448Z,47.76
2019-02-18T05:25:18.255Z,47.78
2019-02-18T05:28:24.055Z,47.83
2019-02-18T05:31:29.887Z,48.03
2019-02-18T05:34:36.730Z,47.82
2019-02-18T05:37:42.519Z,47.68
2019-02-18T05:40:48.289Z,48.10
2019-02-18T05:43:54.216Z,48.54
2019-02-18T05:46:59.990Z,47.60
2019-02-18T05:50:05.996Z,47.27
2019-02-18T05:53:11.777Z,46.88
2019-02-18T05:56:18.661Z,47.10
2019-02-18T05:59:24.454Z,47.05
2019-02-18T06:02:30.272Z,48.24
2019-02-18T06:05:36.073Z,47.79
2019-02-18T06:08:41.934Z,47.82
2019-02-18T06:11:47.690Z,46.97
2019-02-18T06:14:53.500Z,46.67
2019-02-18T06:17:59.277Z,46.67
2019-02-18T06:21:05.126Z,46.29
2019-02-18T06:24:10.982Z,45.74
2019-02-18T06:27:18.374Z,45.06
2019-02-18T06:30:24.150Z,44.34
2019-02-18T06:33:29.989Z,43.50
2019-02-18T06:36:35.774Z,43.03
2019-02-18T06:39:42.137Z,42.83
2019-02-18T06:42:48.031Z,42.67
2019-02-18T06:46:01.070Z,41.97
2019-02-18T06:49:12.677Z,42.66
2019-02-18T06:52:19.288Z,41.51
2019-02-18T06:55:25.169Z,41.97
2019-02-18T06:58:43.806Z,41.49
2019-02-18T07:02:00.415Z,41.51
2019-02-18T07:05:21.572Z,40.84
2019-02-18T07:08:46.799Z,40.47
2019-02-18T07:12:11.521Z,40.25
2019-02-18T07:15:17.426Z,40.79
2019-02-18T07:18:23.240Z,40.44
2019-02-18T07:21:29.025Z,40.40
2019-02-18T07:24:34.947Z,40.13
2019-02-18T07:27:40.704Z,39.95
2019-02-18T07:30:46.537Z,39.96
2019-02-18T07:33:52.366Z,39.51
2019-02-18T07:36:58.214Z,39.38
2019-02-18T07:40:04.113Z,39.18
2019-02-18T07:43:09.945Z,39.11
2019-02-18T07:46:15.723Z,38.32
2019-02-18T07:49:21.511Z,37.86
2019-02-18T07:52:27.334Z,37.73
2019-02-18T07:55:33.228Z,37.69
2019-02-18T07:58:39.018Z,37.68
2019-02-18T08:01:44.958Z,37.68
2019-02-18T08:04:50.715Z,36.97
2019-02-18T08:07:56.484Z,37.14
2019-02-18T08:11:02.245Z,37.29
2019-02-18T08:14:08.031Z,37.04
2019-02-18T08:17:13.861Z,36.25
2019-02-18T08:20:19.633Z,35.51
2019-02-18T08:23:25.381Z,35.23
2019-02-18T08:26:31.264Z,34.93
2019-02-18T08:29:37.025Z,35.48
2019-02-18T08:32:43.884Z,35.24
2019-02-18T08:35:49.742Z,34.39
2019-02-18T08:38:55.563Z,34.61
2019-02-18T08:42:01.425Z,33.76
2019-02-18T08:45:08.997Z,32.96
2019-02-18T08:48:14.810Z,32.11
2019-02-18T08:51:20.616Z,31.36
2019-02-18T08:54:26.402Z,31.22
2019-02-18T08:57:32.296Z,30.17
2019-02-18T09:00:38.211Z,30.16
2019-02-18T09:03:44.032Z,30.07
2019-02-18T09:06:49.870Z,30.02
2019-02-18T09:09:55.649Z,29.24
2019-02-18T09:13:01.483Z,29.07
2019-02-18T09:16:07.467Z,28.70
2019-02-18T09:19:13.273Z,28.46
2019-02-18T09:22:51.314Z,28.71
2019-02-18T09:25:59.747Z,28.61
2019-02-18T09:29:05.534Z,28.98
2019-02-18T09:32:11.302Z,30.01
2019-02-18T09:35:17.189Z,29.17
2019-02-18T09:38:25.303Z,29.31
2019-02-18T09:41:30.764Z,28.66
2019-02-18T09:44:36.916Z,28.66
2019-02-18T09:47:42.784Z,28.37
2019-02-18T09:50:48.790Z,27.82
2019-02-18T09:53:54.576Z,27.17
2019-02-18T09:57:00.505Z,27.17
2019-02-18T10:00:07.369Z,27.50
2019-02-18T10:03:13.301Z,27.80
2019-02-18T10:06:20.112Z,27.52
2019-02-18T10:09:25.929Z,27.33
2019-02-18T10:12:31.907Z,26.74
2019-02-18T10:15:37.813Z,27.11
2019-02-18T10:18:43.759Z,26.86
2019-02-18T10:21:49.565Z,26.83
2019-02-18T10:24:55.424Z,26.44
2019-02-18T10:28:02.000Z,26.38
2019-02-18T10:31:07.805Z,26.08
2019-02-18T10:34:13.641Z,25.57
2019-02-18T10:37:19.531Z,26.16
2019-02-18T10:40:25.346Z,25.63
2019-02-18T10:43:32.682Z,25.35
2019-02-18T10:46:40.686Z,25.11
2019-02-18T10:49:46.624Z,24.71
2019-02-18T10:52:52.469Z,25.16
2019-02-18T10:55:58.611Z,24.51
2019-02-18T10:59:04.508Z,24.61
2019-02-18T11:02:10.393Z,24.50
2019-02-18T11:05:16.306Z,24.13
2019-02-18T11:08:22.126Z,24.23
2019-02-18T11:11:27.894Z,24.11
2019-02-18T11:14:33.873Z,24.14
2019-02-18T11:17:39.633Z,24.44
2019-02-18T11:20:45.567Z,25.29
2019-02-18T11:23:51.337Z,24.82
2019-02-18T11:26:57.154Z,23.94
2019-02-18T11:30:03.057Z,24.17
2019-02-18T11:33:09.858Z,23.38
2019-02-18T11:36:15.718Z,23.17
2019-02-18T11:39:21.622Z,23.00
2019-02-18T11:42:27.500Z,23.12
2019-02-18T11:45:34.887Z,23.26
2019-02-18T11:48:41.049Z,23.27
2019-02-18T11:51:46.843Z,23.14
2019-02-18T11:54:53.022Z,22.84
2019-02-18T11:57:58.833Z,22.97
2019-02-18T12:01:04.805Z,23.05
2019-02-18T12:04:10.688Z,22.97
2019-02-18T12:07:16.462Z,23.41
2019-02-18T12:10:22.279Z,22.82
2019-02-18T12:13:28.063Z,22.38
2019-02-18T12:16:33.985Z,22.31
2019-02-18T12:19:39.797Z,22.61
2019-02-18T12:22:45.615Z,22.98
2019-02-18T12:25:51.513Z,22.70
2019-02-18T12:28:57.380Z,24.14
2019-02-18T12:32:03.157Z,23.60
2019-02-18T12:35:09.181Z,23.06
2019-02-18T12:38:17.336Z,23.06
2019-02-18T12:41:22.452Z,22.87
2019-02-18T12:44:28.249Z,23.62
2019-02-18T12:47:34.167Z,24.23
2019-02-18T12:50:39.988Z,24.00
2019-02-18T12:53:46.471Z,23.59
2019-02-18T12:56:52.534Z,23.91
2019-02-18T12:59:58.698Z,23.82
2019-02-18T13:03:05.177Z,24.47
2019-02-18T13:06:11.075Z,24.16
2019-02-18T13:09:16.879Z,24.54
2019-02-18T13:12:22.795Z,24.71
2019-02-18T13:15:28.567Z,24.73
2019-02-18T13:18:34.438Z,25.49
2019-02-18T13:21:40.231Z,25.28
2019-02-18T13:24:46.094Z,24.52
2019-02-18T13:27:51.876Z,24.20
2019-02-18T13:30:57.645Z,24.74
2019-02-18T13:34:05.270Z,24.38
2019-02-18T13:37:13.175Z,24.42
2019-02-18T13:40:18.929Z,24.40
2019-02-18T13:43:30.092Z,24.05
2019-02-18T13:46:35.955Z,24.30
2019-02-18T13:49:42.138Z,24.02
2019-02-18T13:52:48.150Z,24.49
2019-02-18T13:55:54.020Z,25.39
2019-02-18T13:58:59.892Z,25.50
2019-02-18T14:02:06.075Z,25.05
2019-02-18T14:05:12.337Z,24.78
2019-02-18T14:08:18.188Z,24.73
2019-02-18T14:11:24.060Z,24.83
2019-02-18T14:14:29.812Z,24.61
2019-02-18T14:17:35.561Z,24.88
2019-02-18T14:20:41.509Z,24.26
2019-02-18T14:23:47.307Z,24.34
2019-02-18T14:26:53.108Z,24.48
2019-02-18T14:29:58.883Z,24.79
2019-02-18T14:33:04.763Z,24.98
2019-02-18T14:36:10.987Z,24.83
2019-02-18T14:39:24.190Z,25.21
2019-02-18T14:42:34.948Z,25.96
2019-02-18T14:45:40.584Z,26.81
2019-02-18T14:48:46.855Z,27.06
2019-02-18T14:51:53.156Z,27.50
2019-02-18T14:54:59.356Z,27.67
2019-02-18T14:58:05.874Z,27.84
2019-02-18T15:01:12.225Z,27.10
2019-02-18T15:04:18.101Z,27.38
2019-02-18T15:07:24.043Z,27.72
2019-02-18T15:10:29.879Z,27.86
2019-02-18T15:13:35.765Z,28.13
2019-02-18T15:16:41.597Z,27.93
2019-02-18T15:19:47.654Z,28.34
2019-02-18T15:22:53.456Z,28.45
2019-02-18T15:25:59.223Z,28.76
2019-02-18T15:29:05.110Z,28.97
2019-02-18T15:32:11.009Z,29.33
2019-02-18T15:35:16.985Z,30.12
2019-02-18T15:38:22.895Z,30.12
2019-02-18T15:41:28.878Z,30.41
2019-02-18T15:44:34.692Z,30.79
2019-02-18T15:47:40.561Z,31.16
2019-02-18T15:50:46.845Z,32.43
2019-02-18T15:53:52.880Z,32.43
2019-02-18T15:56:58.786Z,32.47
2019-02-18T16:00:05.004Z,32.76
2019-02-18T16:03:12.445Z,33.02
2019-02-18T16:06:18.442Z,33.14
2019-02-18T16:09:24.217Z,33.34
2019-02-18T16:12:30.106Z,33.39
2019-02-18T16:15:35.884Z,33.67
2019-02-18T16:18:41.790Z,33.89
2019-02-18T16:21:47.994Z,34.20
2019-02-18T16:24:53.802Z,34.48
2019-02-18T16:27:59.615Z,34.79
2019-02-18T16:31:05.523Z,34.81
2019-02-18T16:34:11.333Z,34.77
2019-02-18T16:37:17.169Z,34.78
2019-02-18T16:40:23.975Z,34.74
2019-02-18T16:43:29.760Z,34.77
2019-02-18T16:46:35.576Z,34.71
2019-02-18T16:49:41.713Z,34.79
2019-02-18T16:52:48.080Z,34.83
2019-02-18T16:55:53.944Z,34.93
2019-02-18T16:58:59.730Z,35.06
2019-02-18T17:02:05.764Z,35.17
2019-02-18T17:05:11.637Z,35.19
2019-02-18T17:08:17.463Z,35.25
2019-02-18T17:11:23.319Z,35.43
2019-02-18T17:14:29.145Z,35.49
2019-02-18T17:17:34.963Z,35.52
2019-02-18T17:20:40.754Z,35.52
2019-02-18T17:23:46.780Z,35.64
2019-02-18T17:26:52.645Z,35.81
2019-02-18T17:29:58.398Z,36.24
2019-02-18T17:33:06.862Z,36.05
2019-02-18T17:36:12.622Z,36.88
2019-02-18T17:39:19.507Z,37.64
2019-02-18T17:42:25.302Z,37.05
2019-02-18T17:45:31.265Z,37.16
2019-02-18T17:48:37.157Z,36.88
2019-02-18T17:51:43.131Z,37.29
2019-02-18T17:54:49.411Z,37.13
2019-02-18T17:57:55.188Z,36.93
2019-02-18T18:01:01.179Z,37.00
2019-02-18T18:04:08.079Z,36.73
2019-02-18T18:07:14.069Z,37.02
2019-02-18T18:10:20.025Z,37.50
2019-02-18T18:13:26.737Z,37.50
2019-02-18T18:16:32.614Z,38.43
2019-02-18T18:19:38.405Z,38.84
2019-02-18T18:22:44.386Z,38.38
2019-02-18T18:25:50.549Z,38.73
2019-02-18T18:28:56.442Z,39.18
2019-02-18T18:32:02.430Z,39.35
2019-02-18T18:35:10.389Z,39.90
2019-02-18T18:38:16.183Z,39.58
2019-02-18T18:41:21.997Z,39.91
2019-02-18T18:44:27.813Z,40.16
2019-02-18T18:47:33.673Z,40.70
2019-02-18T18:50:39.481Z,41.09
2019-02-18T18:53:45.261Z,40.69
2019-02-18T18:56:51.152Z,40.71
2019-02-18T18:59:58.006Z,40.56
2019-02-18T19:03:03.825Z,40.16
2019-02-18T19:06:09.705Z,39.88
2019-02-18T19:09:15.504Z,39.89
2019-02-18T19:12:21.304Z,39.66
2019-02-18T19:15:28.654Z,39.59
2019-02-18T19:18:34.643Z,39.74
2019-02-18T19:21:40.575Z,39.66
2019-02-18T19:24:46.739Z,39.50
2019-02-18T19:27:52.784Z,40.00
2019-02-18T19:30:58.593Z,40.18
2019-02-18T19:34:04.433Z,40.34
2019-02-18T19:37:10.257Z,40.61
2019-02-18T19:40:16.592Z,40.69
2019-02-18T19:43:22.681Z,40.51
2019-02-18T19:46:28.491Z,41.06
2019-02-18T19:49:34.301Z,41.24
2019-02-18T19:52:40.116Z,41.51
2019-02-18T19:55:46.047Z,41.29
2019-02-18T19:58:51.815Z,41.67
2019-02-18T20:01:57.678Z,41.54
2019-02-18T20:05:03.579Z,41.38
2019-02-18T20:08:09.399Z,41.18
2019-02-18T20:11:15.396Z,41.34
2019-02-18T20:14:21.232Z,41.17
2019-02-18T20:17:27.114Z,40.50
2019-02-18T20:20:32.969Z,39.83
2019-02-18T20:23:38.776Z,39.94
2019-02-18T20:26:44.639Z,41.00
2019-02-18T20:29:51.541Z,40.78
2019-02-18T20:32:57.633Z,40.47
2019-02-18T20:36:03.450Z,40.59
2019-02-18T20:39:09.956Z,40.25
2019-02-18T20:42:17.056Z,40.19
2019-02-18T20:45:22.960Z,40.27
2019-02-18T20:48:30.230Z,40.55
2019-02-18T20:51:36.108Z,40.68
2019-02-18T20:54:41.932Z,40.88
2019-02-18T20:57:50.761Z,41.21
2019-02-18T21:00:56.807Z,41.15
2019-02-18T21:04:02.833Z,41.65
2019-02-18T21:07:08.903Z,41.84
2019-02-18T21:10:15.198Z,41.62
2019-02-18T21:13:21.132Z,41.62
2019-02-18T21:16:26.930Z,41.70
2019-02-18T21:19:32.754Z,41.71
2019-02-18T21:22:38.520Z,41.94
2019-02-18T21:25:44.908Z,42.68
2019-02-18T21:28:50.688Z,42.87
2019-02-18T21:31:56.470Z,42.93
2019-02-18T21:35:02.298Z,42.95
2019-02-18T21:38:08.061Z,42.92
2019-02-18T21:41:13.836Z,42.92
2019-02-18T21:44:25.157Z,42.91
2019-02-18T21:47:28.181Z,42.76
2019-02-18T21:50:33.960Z,43.30
2019-02-18T21:53:39.737Z,43.27
2019-02-18T21:56:45.545Z,43.00
2019-02-18T21:59:51.443Z,43.11
2019-02-18T22:02:57.213Z,42.89
2019-02-18T22:06:03.082Z,42.95
2019-02-18T22:09:09.045Z,42.72
2019-02-18T22:12:15.481Z,42.72
2019-02-18T22:15:21.299Z,42.69
2019-02-18T22:18:27.100Z,42.75
2019-02-18T22:21:32.907Z,42.89
2019-02-18T22:24:38.700Z,42.84
2019-02-18T22:27:46.352Z,42.86
2019-02-18T22:30:52.140Z,43.79
2019-02-18T22:33:57.930Z,43.05
2019-02-18T22:37:04.177Z,42.80
2019-02-18T22:40:10.090Z,43.79
2019-02-18T22:43:15.885Z,44.21
2019-02-18T22:46:21.753Z,44.58
2019-02-18T22:49:27.530Z,46.53
2019-02-18T22:52:33.363Z,47.19
2019-02-18T22:55:39.208Z,46.63
2019-02-18T22:58:44.986Z,46.02
2019-02-18T23:01:50.866Z,46.05
2019-02-18T23:04:56.646Z,46.17
2019-02-18T23:08:02.549Z,45.86
2019-02-18T23:11:08.422Z,45.55
2019-02-18T23:14:14.200Z,45.10
2019-02-18T23:17:20.030Z,44.60
2019-02-18T23:20:25.788Z,44.19
2019-02-18T23:23:31.570Z,44.12
2019-02-18T23:26:37.805Z,45.31
2019-02-18T23:29:43.572Z,45.56
2019-02-18T23:32:49.339Z,45.70
2019-02-18T23:35:55.115Z,45.93
2019-02-18T23:39:00.930Z,45.96
2019-02-18T23:42:08.363Z,45.97
2019-02-18T23:45:14.253Z,45.87
2019-02-18T23:48:20.065Z,45.96
2019-02-18T23:51:26.955Z,46.49
2019-02-18T23:54:33.719Z,45.73
2019-02-18T23:57:39.491Z,45.78
